Airfield :
LOGIN :

Register | Disclaimer

   EN    FR    IT 

 










Legend :    VFR   Marginal VFR   IFR   Intensive IFR   Very Intensive IFR
Visi :
Ceiling :
>= 8 km
>= 3000ft
5 to 8 km
1000 to 3000 ft
1500m to 5 km
500 to 1000 ft
800 to 1500m
200 to 500 ft
< 800m
< 200 ft
Symbols :   Thunderstorms  Fog  Heavy snow  Heavy precipitations  Wind > 20 kt
SIGMETs :     Misc.  Thunderstorms  Icing  Turbulence  Mountain Waves  Volcanic Ashes






- Airport Elevation : 26 ft
- IATA code : GLA


EGPF - Glasgow

CURRENT METAR :
  • 211650Z AUTO 28014KT 9999 FEW029 SCT033 BKN042 09/04 Q1011

EXPIRED METARs :
  • 211620Z AUTO 28014KT 9999 SCT030/// //////TCU 09/04 Q1011
  • 211550Z AUTO 27013KT 9999 SCT031 09/04 Q1011
  • 211520Z AUTO 26015KT 9999 SCT035/// BKN041/// //////TCU 09/05 Q1011
  • 211450Z AUTO 27015KT 9999 FEW044/// //////TCU 10/04 Q1011
  • 211420Z AUTO 27012KT 9999 FEW036/// //////TCU 09/04 Q1011

TAF TAF EGPF
Valid from the 21 at 12:00 until the 22 at 12:00 UTC


211058Z 2112/2212 27009KT 9999 SCT035
TEMPO 2112/2212 8000 -SHRA
PROB40
TEMPO 2115/2206 28017G30KT 4000 SHRA
ATIS : +44 141 887 7449



MET'MAP, your aeronautical weather chart ! - Copyright ORBIFLY December 2007 - Disclaimer

ORBIFLY MET'MAP TEAM :

Programming & Development : Alexandra Zaïnal
Concept & original design : Baudouin d'Aumeries
Assistance for programming : Marc-Olivier Méhu
Technical & hardware support : Manuel Goepfert

Contact : metmap@orbifly.com




SOURCES & CREDITS :

   NOAA